createdAt,value
2019-02-15T00:21:18.964Z,37.42
2019-02-15T00:56:40.177Z,35.98
2019-02-15T00:59:18.312Z,38.02
2019-02-15T01:08:55.918Z,43.52
2019-02-15T01:11:29.448Z,49.10
2019-02-15T01:13:59.332Z,48.50
2019-02-15T01:16:29.323Z,48.38
2019-02-15T01:18:59.191Z,46.13
2019-02-15T01:21:29.089Z,39.98
2019-02-15T01:23:59.333Z,49.13
2019-02-15T01:26:46.106Z,43.28
2019-02-15T01:29:27.162Z,49.20
2019-02-15T01:32:15.145Z,37.35
2019-02-15T01:34:52.493Z,42.40
2019-02-15T01:37:28.917Z,45.88
2019-02-15T01:40:16.166Z,40.23
2019-02-15T01:43:11.124Z,40.28
2019-02-15T01:45:47.836Z,40.70
2019-02-15T01:48:17.733Z,40.12
2019-02-15T01:54:39.137Z,35.60
2019-02-15T01:57:09.209Z,42.58
2019-02-15T01:59:39.969Z,35.25
2019-02-15T02:02:09.879Z,39.63
2019-02-15T02:04:39.760Z,37.08
2019-02-15T02:07:09.739Z,35.78
2019-02-15T02:13:24.767Z,38.02
2019-02-15T02:15:54.729Z,55.15
2019-02-15T02:18:24.689Z,45.55
2019-02-15T02:20:54.823Z,46.05
2019-02-15T02:23:24.718Z,48.10
2019-02-15T02:25:54.599Z,42.93
2019-02-15T02:28:24.560Z,42.25
2019-02-15T02:30:54.447Z,42.90
2019-02-15T02:33:25.073Z,46.75
2019-02-15T02:39:40.010Z,41.02
2019-02-15T03:07:42.205Z,41.02
2019-02-15T03:18:04.805Z,33.67
2019-02-15T03:20:35.642Z,27.45
2019-02-15T03:23:05.787Z,28.45
2019-02-15T03:25:35.720Z,31.40
2019-02-15T03:42:05.581Z,30.10
2019-02-15T03:51:55.328Z,31.10
2019-02-15T03:54:25.334Z,31.70
2019-02-15T03:56:55.381Z,40.30
2019-02-15T03:59:25.444Z,29.65
2019-02-15T04:01:55.330Z,39.53
2019-02-15T04:04:26.318Z,29.18
2019-02-15T04:10:40.896Z,37.08
2019-02-15T04:23:20.997Z,24.85
2019-02-15T04:25:50.914Z,28.17
2019-02-15T04:28:20.919Z,29.48
2019-02-15T04:30:51.028Z,24.90
2019-02-15T04:33:20.983Z,26.15
2019-02-15T04:35:51.006Z,23.02
2019-02-15T04:38:20.928Z,21.57
2019-02-15T04:40:50.836Z,18.02
2019-02-15T04:43:20.735Z,26.02
2019-02-15T04:45:50.684Z,25.95
2019-02-15T04:48:20.655Z,28.70
2019-02-15T04:50:51.205Z,29.40
2019-02-15T04:53:21.176Z,24.72
2019-02-15T04:55:51.136Z,19.10
2019-02-15T04:58:21.042Z,23.12
2019-02-15T05:00:50.948Z,21.68
2019-02-15T05:03:20.846Z,24.95
2019-02-15T05:05:50.756Z,25.52
2019-02-15T05:08:20.665Z,26.60
2019-02-15T05:14:52.283Z,22.42
2019-02-15T05:17:14.051Z,21.35
2019-02-15T05:19:44.055Z,22.27
2019-02-15T05:22:13.963Z,25.27
2019-02-15T05:24:43.895Z,23.55
2019-02-15T05:27:13.809Z,25.85
2019-02-15T05:29:43.742Z,24.35
2019-02-15T05:32:13.661Z,27.62
2019-02-15T05:34:43.587Z,35.40
2019-02-15T05:37:13.551Z,20.10
2019-02-15T05:39:43.425Z,23.92
2019-02-15T05:53:22.206Z,35.88
2019-02-15T05:55:52.140Z,31.48
2019-02-15T05:58:22.148Z,27.13
2019-02-15T06:00:52.103Z,27.70
2019-02-15T06:03:22.019Z,29.98
2019-02-15T06:05:51.970Z,33.08
2019-02-15T06:08:21.875Z,30.70
2019-02-15T06:10:51.806Z,34.05
2019-02-15T06:17:13.024Z,24.40
2019-02-15T07:26:00.398Z,40.55
2019-02-15T07:38:01.112Z,38.95
2019-02-15T07:40:31.127Z,47.62
2019-02-15T07:43:01.045Z,43.58
2019-02-15T07:45:30.985Z,49.13
2019-02-15T07:48:01.045Z,30.95
2019-02-15T07:50:31.256Z,37.70
2019-02-15T07:56:45.818Z,32.78
2019-02-15T07:59:15.730Z,32.75
2019-02-15T08:01:45.844Z,27.35
2019-02-15T08:04:15.753Z,31.90
2019-02-15T08:06:45.690Z,32.10
2019-02-15T08:09:16.104Z,28.15
2019-02-15T08:11:46.284Z,29.92
2019-02-15T08:14:17.647Z,25.97
2019-02-15T08:16:48.128Z,25.13
2019-02-15T08:19:18.052Z,29.42
2019-02-15T08:21:48.052Z,25.10
2019-02-15T08:24:18.001Z,22.55
2019-02-15T08:26:47.911Z,22.00
2019-02-15T08:29:17.890Z,26.27
2019-02-15T08:31:47.825Z,18.70
2019-02-15T08:34:18.321Z,21.85
2019-02-15T08:36:48.261Z,19.87
2019-02-15T09:05:57.285Z,23.12
2019-02-15T09:36:16.153Z,21.30
2019-02-15T09:38:46.064Z,24.50
2019-02-15T09:41:15.952Z,25.87
2019-02-15T09:43:45.857Z,23.90
2019-02-15T09:46:20.050Z,21.67
2019-02-15T09:48:47.384Z,25.33
2019-02-15T09:51:17.333Z,24.87
2019-02-15T09:53:47.216Z,23.20
2019-02-15T09:56:17.129Z,28.90
2019-02-15T09:58:47.050Z,18.00
2019-02-15T10:20:25.176Z,20.60
2019-02-15T10:22:55.106Z,19.73
2019-02-15T11:01:08.963Z,18.23
2019-02-15T11:14:16.463Z,21.90
2019-02-15T11:16:47.591Z,22.07
2019-02-15T11:19:17.483Z,18.83
2019-02-15T11:21:47.430Z,25.27
2019-02-15T11:24:17.552Z,25.33
2019-02-15T11:26:47.448Z,20.93
2019-02-15T11:29:17.363Z,17.23
2019-02-15T11:31:47.300Z,23.70
2019-02-15T11:34:17.333Z,17.70
2019-02-15T11:36:47.516Z,24.33
2019-02-15T11:39:17.434Z,15.90
2019-02-15T11:41:47.732Z,18.10
2019-02-15T11:44:17.720Z,19.20
2019-02-15T11:46:56.311Z,18.13
2019-02-15T11:49:19.782Z,17.30
2019-02-15T11:55:22.129Z,13.53
2019-02-15T11:57:52.023Z,21.10
2019-02-15T12:00:27.224Z,12.77
2019-02-15T12:02:57.134Z,17.60
2019-02-15T12:05:27.042Z,18.93
2019-02-15T12:07:56.950Z,12.87
2019-02-15T12:10:27.151Z,12.23
2019-02-15T12:16:47.653Z,14.30
2019-02-15T12:19:17.839Z,14.50
2019-02-15T12:28:14.740Z,8.30
2019-02-15T12:30:45.420Z,12.33
2019-02-15T12:53:54.028Z,7.77
2019-02-15T13:11:02.510Z,13.43
2019-02-15T13:20:27.488Z,8.50
2019-02-15T13:30:13.470Z,6.63
2019-02-15T13:32:43.423Z,8.57
2019-02-15T13:35:14.320Z,6.77
2019-02-15T13:41:34.972Z,10.03
2019-02-15T13:44:04.972Z,8.50
2019-02-15T13:46:34.931Z,3.80
2019-02-15T13:52:55.848Z,4.00
2019-02-15T14:02:39.375Z,4.10
2019-02-15T15:23:34.006Z,3.90
2019-02-15T16:01:44.911Z,5.57
2019-02-15T16:14:37.270Z,8.17
2019-02-15T16:17:07.162Z,9.87
2019-02-15T16:25:44.995Z,6.80
2019-02-15T16:43:34.584Z,6.73
2019-02-15T16:53:36.267Z,13.03
2019-02-15T16:56:06.912Z,12.20
2019-02-15T16:58:36.831Z,10.47
2019-02-15T17:01:06.837Z,13.53
2019-02-15T17:03:36.717Z,9.37
2019-02-15T17:06:07.285Z,9.53
2019-02-15T17:08:37.201Z,8.40
2019-02-15T17:11:07.343Z,13.50
2019-02-15T17:13:37.763Z,10.90
2019-02-15T17:16:07.683Z,11.30
2019-02-15T17:18:37.590Z,10.03
2019-02-15T17:21:07.586Z,15.13
2019-02-15T17:23:37.457Z,10.37
2019-02-15T17:29:58.667Z,11.00
2019-02-15T17:43:07.278Z,11.70
2019-02-15T17:56:22.790Z,13.80
2019-02-15T17:58:52.691Z,11.73
2019-02-15T18:01:22.627Z,13.17
2019-02-15T18:07:45.961Z,12.93
2019-02-15T18:10:15.891Z,15.17
2019-02-15T18:12:45.791Z,12.77
2019-02-15T18:15:15.926Z,13.40
2019-02-15T18:17:46.289Z,13.50
2019-02-15T18:24:07.821Z,15.00
2019-02-15T18:26:37.728Z,12.63
2019-02-15T18:35:39.024Z,12.23
2019-02-15T18:38:09.437Z,14.60
2019-02-15T18:40:39.366Z,13.17
2019-02-15T18:43:09.341Z,12.77
2019-02-15T18:45:39.274Z,13.80
2019-02-15T18:48:09.186Z,16.03
2019-02-15T18:50:39.147Z,15.57
2019-02-15T18:53:09.850Z,13.97
2019-02-15T18:55:39.987Z,15.83
2019-02-15T18:58:09.892Z,15.70
2019-02-15T19:00:39.800Z,17.40
2019-02-15T19:03:09.745Z,21.43
2019-02-15T19:05:39.639Z,16.57
2019-02-15T19:12:00.986Z,15.57
2019-02-15T19:14:31.217Z,13.97
2019-02-15T19:17:01.699Z,13.20
2019-02-15T19:19:32.511Z,15.10
2019-02-15T19:22:02.469Z,17.73
2019-02-15T19:24:32.390Z,13.77
2019-02-15T19:27:02.312Z,16.87
2019-02-15T19:29:32.397Z,18.13
2019-02-15T19:35:53.919Z,13.53
2019-02-15T19:38:23.908Z,16.43
2019-02-15T19:40:53.794Z,13.87
2019-02-15T19:47:15.547Z,22.53
2019-02-15T19:49:45.435Z,12.17
2019-02-15T19:52:15.389Z,15.67
2019-02-15T19:54:45.281Z,16.67
2019-02-15T19:57:15.215Z,14.23
2019-02-15T20:03:17.146Z,19.30
2019-02-15T20:05:47.192Z,17.13
2019-02-15T20:08:17.129Z,15.93
2019-02-15T20:14:32.293Z,13.93
2019-02-15T20:27:13.077Z,17.07
2019-02-15T20:40:20.443Z,19.67
2019-02-15T20:53:14.800Z,19.60
2019-02-15T20:55:44.725Z,20.50
2019-02-15T20:58:14.809Z,23.93
2019-02-15T21:00:44.924Z,19.47
2019-02-15T21:17:12.689Z,18.50
2019-02-15T21:19:42.607Z,21.37
2019-02-15T21:36:14.780Z,19.03
2019-02-15T21:38:44.718Z,23.43
2019-02-15T21:41:14.640Z,28.93
2019-02-15T21:43:44.593Z,27.17
2019-02-15T21:46:14.499Z,24.33
2019-02-15T21:48:44.669Z,24.50
2019-02-15T21:51:14.551Z,28.77
2019-02-15T21:53:44.469Z,23.13
2019-02-15T21:56:14.384Z,28.80
2019-02-15T22:02:35.500Z,28.27
2019-02-15T22:05:05.988Z,30.13
2019-02-15T22:07:35.911Z,28.30
2019-02-15T22:10:07.113Z,22.87
2019-02-15T22:12:37.070Z,24.90
2019-02-15T22:15:08.162Z,26.00
2019-02-15T22:17:38.201Z,24.30
2019-02-15T22:20:10.039Z,30.33
2019-02-15T22:22:39.928Z,25.13
2019-02-15T22:25:09.991Z,23.13
2019-02-15T22:27:40.001Z,22.27
2019-02-15T22:30:12.539Z,25.85
2019-02-15T22:32:42.878Z,23.00
2019-02-15T22:35:12.965Z,25.30
2019-02-15T22:37:43.771Z,26.97
2019-02-15T22:40:28.943Z,21.50
2019-02-15T22:46:50.925Z,22.63
2019-02-15T22:49:20.882Z,23.40
2019-02-15T22:51:51.056Z,22.23
2019-02-15T22:54:21.002Z,28.17
2019-02-15T22:56:52.701Z,23.45
2019-02-15T22:59:22.650Z,22.20
2019-02-15T23:01:52.774Z,28.67
2019-02-15T23:04:22.829Z,21.77
2019-02-15T23:06:52.781Z,24.47
2019-02-15T23:09:24.113Z,27.90
2019-02-15T23:11:54.142Z,27.97
2019-02-15T23:14:24.872Z,21.27
2019-02-15T23:16:54.950Z,25.70
2019-02-15T23:19:24.960Z,33.77
2019-02-15T23:23:07.751Z,27.13
2019-02-15T23:25:37.665Z,21.70
2019-02-15T23:28:07.820Z,24.87
2019-02-15T23:30:37.800Z,31.10
2019-02-15T23:33:07.730Z,27.60
2019-02-15T23:35:37.649Z,23.95
2019-02-15T23:38:07.575Z,28.52
2019-02-15T23:40:37.502Z,29.27
2019-02-15T23:43:07.477Z,30.25
2019-02-15T23:45:37.383Z,27.13
2019-02-15T23:48:07.462Z,26.45
2019-02-15T23:50:37.392Z,31.27
2019-02-15T23:53:07.355Z,27.58
2019-02-15T23:55:38.066Z,24.70
2019-02-15T23:58:08.879Z,25.27
